sensor_id;sensor_type;location;lat;lon;timestamp;P1;durP1;ratioP1;P2;durP2;ratioP2
23519;SDS011;11936;50.820;4.336;2022-09-09T00:04:15;6.20;;;1.50;;
23519;SDS011;11936;50.820;4.336;2022-09-09T00:09:52;2.42;;;1.20;;
23519;SDS011;11936;50.820;4.336;2022-09-09T00:12:26;4.53;;;1.45;;
23519;SDS011;11936;50.820;4.336;2022-09-09T00:15:00;2.92;;;1.40;;
23519;SDS011;11936;50.820;4.336;2022-09-09T00:17:47;3.33;;;1.42;;
23519;SDS011;11936;50.820;4.336;2022-09-09T00:23:05;5.25;;;1.50;;
23519;SDS011;11936;50.820;4.336;2022-09-09T00:31:25;2.75;;;1.30;;
23519;SDS011;11936;50.820;4.336;2022-09-09T00:33:53;3.05;;;1.30;;
23519;SDS011;11936;50.820;4.336;2022-09-09T00:36:23;5.68;;;1.50;;
23519;SDS011;11936;50.820;4.336;2022-09-09T00:38:56;7.07;;;1.33;;
23519;SDS011;11936;50.820;4.336;2022-09-09T00:44:06;4.80;;;1.20;;
23519;SDS011;11936;50.820;4.336;2022-09-09T00:57:34;3.10;;;1.05;;
23519;SDS011;11936;50.820;4.336;2022-09-09T01:17:03;5.45;;;1.70;;
23519;SDS011;11936;50.820;4.336;2022-09-09T01:19:45;6.20;;;1.50;;
23519;SDS011;11936;50.820;4.336;2022-09-09T01:27:51;3.20;;;1.17;;
23519;SDS011;11936;50.820;4.336;2022-09-09T01:30:20;5.47;;;1.52;;
23519;SDS011;11936;50.820;4.336;2022-09-09T01:32:48;4.47;;;1.33;;
23519;SDS011;11936;50.820;4.336;2022-09-09T01:37:51;6.72;;;1.70;;
23519;SDS011;11936;50.820;4.336;2022-09-09T01:40:17;5.20;;;1.38;;
23519;SDS011;11936;50.820;4.336;2022-09-09T01:42:43;7.18;;;1.60;;
23519;SDS011;11936;50.820;4.336;2022-09-09T01:45:08;10.65;;;1.58;;
23519;SDS011;11936;50.820;4.336;2022-09-09T01:47:34;10.32;;;2.08;;
23519;SDS011;11936;50.820;4.336;2022-09-09T01:50:01;6.55;;;1.60;;
23519;SDS011;11936;50.820;4.336;2022-09-09T01:52:28;15.20;;;2.08;;
23519;SDS011;11936;50.820;4.336;2022-09-09T01:54:54;9.85;;;2.03;;
23519;SDS011;11936;50.820;4.336;2022-09-09T01:57:23;4.43;;;1.38;;
23519;SDS011;11936;50.820;4.336;2022-09-09T02:02:59;6.80;;;1.90;;
23519;SDS011;11936;50.820;4.336;2022-09-09T02:08:42;13.77;;;2.17;;
23519;SDS011;11936;50.820;4.336;2022-09-09T02:11:17;7.53;;;1.65;;
23519;SDS011;11936;50.820;4.336;2022-09-09T02:13:46;6.03;;;2.03;;
23519;SDS011;11936;50.820;4.336;2022-09-09T02:24:18;7.60;;;1.73;;
23519;SDS011;11936;50.820;4.336;2022-09-09T02:26:44;9.65;;;1.77;;
23519;SDS011;11936;50.820;4.336;2022-09-09T02:29:17;5.72;;;1.90;;
23519;SDS011;11936;50.820;4.336;2022-09-09T02:31:45;9.48;;;2.97;;
23519;SDS011;11936;50.820;4.336;2022-09-09T02:34:14;11.57;;;2.15;;
23519;SDS011;11936;50.820;4.336;2022-09-09T02:36:43;8.77;;;2.40;;
23519;SDS011;11936;50.820;4.336;2022-09-09T02:39:10;6.07;;;1.88;;
23519;SDS011;11936;50.820;4.336;2022-09-09T02:41:38;7.53;;;2.08;;
23519;SDS011;11936;50.820;4.336;2022-09-09T02:44:16;8.77;;;2.08;;
23519;SDS011;11936;50.820;4.336;2022-09-09T02:46:55;11.32;;;2.22;;
23519;SDS011;11936;50.820;4.336;2022-09-09T02:58:04;9.35;;;1.80;;
23519;SDS011;11936;50.820;4.336;2022-09-09T03:00:33;8.05;;;2.00;;
23519;SDS011;11936;50.820;4.336;2022-09-09T03:03:01;5.80;;;1.73;;
23519;SDS011;11936;50.820;4.336;2022-09-09T03:05:30;10.15;;;2.10;;
23519;SDS011;11936;50.820;4.336;2022-09-09T03:07:56;13.43;;;2.33;;
23519;SDS011;11936;50.820;4.336;2022-09-09T03:10:22;11.38;;;2.20;;
23519;SDS011;11936;50.820;4.336;2022-09-09T03:12:48;10.10;;;2.38;;
23519;SDS011;11936;50.820;4.336;2022-09-09T03:15:13;7.65;;;2.05;;
23519;SDS011;11936;50.820;4.336;2022-09-09T03:17:40;8.55;;;1.95;;
23519;SDS011;11936;50.820;4.336;2022-09-09T03:20:06;9.27;;;2.38;;
23519;SDS011;11936;50.820;4.336;2022-09-09T03:22:32;12.05;;;2.05;;
23519;SDS011;11936;50.820;4.336;2022-09-09T03:24:58;10.68;;;2.10;;
23519;SDS011;11936;50.820;4.336;2022-09-09T03:27:23;12.70;;;2.50;;
23519;SDS011;11936;50.820;4.336;2022-09-09T03:29:49;6.38;;;1.63;;
23519;SDS011;11936;50.820;4.336;2022-09-09T03:32:17;12.60;;;2.45;;
23519;SDS011;11936;50.820;4.336;2022-09-09T03:34:44;9.88;;;2.55;;
23519;SDS011;11936;50.820;4.336;2022-09-09T03:37:10;6.47;;;2.22;;
23519;SDS011;11936;50.820;4.336;2022-09-09T03:39:35;9.85;;;2.47;;
23519;SDS011;11936;50.820;4.336;2022-09-09T03:42:01;10.13;;;2.50;;
23519;SDS011;11936;50.820;4.336;2022-09-09T03:44:29;10.35;;;2.55;;
23519;SDS011;11936;50.820;4.336;2022-09-09T03:46:55;6.45;;;2.00;;
23519;SDS011;11936;50.820;4.336;2022-09-09T03:49:21;11.63;;;1.77;;
23519;SDS011;11936;50.820;4.336;2022-09-09T03:51:47;11.82;;;2.45;;
23519;SDS011;11936;50.820;4.336;2022-09-09T03:54:13;12.82;;;2.35;;
23519;SDS011;11936;50.820;4.336;2022-09-09T03:56:38;10.60;;;1.88;;
23519;SDS011;11936;50.820;4.336;2022-09-09T03:59:06;11.93;;;2.50;;
23519;SDS011;11936;50.820;4.336;2022-09-09T04:01:33;11.20;;;2.25;;
23519;SDS011;11936;50.820;4.336;2022-09-09T04:03:59;10.27;;;2.72;;
23519;SDS011;11936;50.820;4.336;2022-09-09T04:06:26;6.20;;;2.03;;
23519;SDS011;11936;50.820;4.336;2022-09-09T04:08:51;8.07;;;2.08;;
23519;SDS011;11936;50.820;4.336;2022-09-09T04:11:17;7.40;;;2.45;;
23519;SDS011;11936;50.820;4.336;2022-09-09T04:13:43;13.65;;;2.70;;
23519;SDS011;11936;50.820;4.336;2022-09-09T04:16:10;8.70;;;1.85;;
23519;SDS011;11936;50.820;4.336;2022-09-09T04:21:04;8.25;;;2.17;;
23519;SDS011;11936;50.820;4.336;2022-09-09T04:23:31;11.32;;;2.60;;
23519;SDS011;11936;50.820;4.336;2022-09-09T04:25:59;11.75;;;2.95;;
23519;SDS011;11936;50.820;4.336;2022-09-09T04:28:27;10.73;;;2.63;;
23519;SDS011;11936;50.820;4.336;2022-09-09T04:33:23;11.48;;;2.63;;
23519;SDS011;11936;50.820;4.336;2022-09-09T04:35:51;9.75;;;2.53;;
23519;SDS011;11936;50.820;4.336;2022-09-09T04:38:18;8.80;;;2.55;;
23519;SDS011;11936;50.820;4.336;2022-09-09T04:40:48;13.40;;;2.63;;
23519;SDS011;11936;50.820;4.336;2022-09-09T04:43:15;9.80;;;2.70;;
23519;SDS011;11936;50.820;4.336;2022-09-09T04:45:43;9.40;;;2.40;;
23519;SDS011;11936;50.820;4.336;2022-09-09T04:48:12;7.00;;;2.25;;
23519;SDS011;11936;50.820;4.336;2022-09-09T04:50:38;11.32;;;2.80;;
23519;SDS011;11936;50.820;4.336;2022-09-09T04:53:05;16.83;;;2.92;;
23519;SDS011;11936;50.820;4.336;2022-09-09T04:55:31;17.05;;;2.67;;
23519;SDS011;11936;50.820;4.336;2022-09-09T04:58:02;12.95;;;2.85;;
23519;SDS011;11936;50.820;4.336;2022-09-09T05:00:29;15.60;;;3.30;;
23519;SDS011;11936;50.820;4.336;2022-09-09T05:02:54;10.70;;;3.10;;
23519;SDS011;11936;50.820;4.336;2022-09-09T05:05:20;11.30;;;2.60;;
23519;SDS011;11936;50.820;4.336;2022-09-09T05:07:45;10.00;;;2.65;;
23519;SDS011;11936;50.820;4.336;2022-09-09T05:10:12;13.15;;;2.83;;
23519;SDS011;11936;50.820;4.336;2022-09-09T05:12:39;11.20;;;2.80;;
23519;SDS011;11936;50.820;4.336;2022-09-09T05:15:04;11.88;;;3.15;;
23519;SDS011;11936;50.820;4.336;2022-09-09T05:17:30;14.60;;;3.00;;
23519;SDS011;11936;50.820;4.336;2022-09-09T05:19:56;19.70;;;3.47;;
23519;SDS011;11936;50.820;4.336;2022-09-09T05:22:21;10.13;;;2.38;;
23519;SDS011;11936;50.820;4.336;2022-09-09T05:24:48;9.80;;;2.92;;
23519;SDS011;11936;50.820;4.336;2022-09-09T05:27:16;11.65;;;2.75;;
23519;SDS011;11936;50.820;4.336;2022-09-09T05:29:44;10.60;;;2.97;;
23519;SDS011;11936;50.820;4.336;2022-09-09T05:32:10;10.93;;;3.10;;
23519;SDS011;11936;50.820;4.336;2022-09-09T05:34:35;17.10;;;3.47;;
23519;SDS011;11936;50.820;4.336;2022-09-09T05:37:02;16.00;;;3.30;;
23519;SDS011;11936;50.820;4.336;2022-09-09T05:39:29;13.68;;;2.80;;
23519;SDS011;11936;50.820;4.336;2022-09-09T05:41:54;11.88;;;2.88;;
23519;SDS011;11936;50.820;4.336;2022-09-09T05:44:20;10.48;;;3.17;;
23519;SDS011;11936;50.820;4.336;2022-09-09T05:46:48;15.17;;;3.87;;
23519;SDS011;11936;50.820;4.336;2022-09-09T05:49:14;8.85;;;2.30;;
23519;SDS011;11936;50.820;4.336;2022-09-09T05:51:40;10.00;;;2.97;;
23519;SDS011;11936;50.820;4.336;2022-09-09T05:54:07;18.73;;;3.22;;
23519;SDS011;11936;50.820;4.336;2022-09-09T05:56:33;14.20;;;2.85;;
23519;SDS011;11936;50.820;4.336;2022-09-09T05:58:59;9.90;;;2.50;;
23519;SDS011;11936;50.820;4.336;2022-09-09T06:01:26;15.60;;;3.45;;
23519;SDS011;11936;50.820;4.336;2022-09-09T06:03:53;9.80;;;2.58;;
23519;SDS011;11936;50.820;4.336;2022-09-09T06:06:26;11.50;;;2.40;;
23519;SDS011;11936;50.820;4.336;2022-09-09T06:08:55;14.15;;;2.70;;
23519;SDS011;11936;50.820;4.336;2022-09-09T06:11:29;12.05;;;2.95;;
23519;SDS011;11936;50.820;4.336;2022-09-09T06:13:59;16.45;;;2.85;;
23519;SDS011;11936;50.820;4.336;2022-09-09T06:16:25;14.07;;;3.17;;
23519;SDS011;11936;50.820;4.336;2022-09-09T06:18:53;9.85;;;2.50;;
23519;SDS011;11936;50.820;4.336;2022-09-09T06:21:23;8.50;;;2.67;;
23519;SDS011;11936;50.820;4.336;2022-09-09T06:23:53;9.85;;;2.30;;
23519;SDS011;11936;50.820;4.336;2022-09-09T06:28:52;14.25;;;2.90;;
23519;SDS011;11936;50.820;4.336;2022-09-09T06:31:20;9.70;;;2.63;;
23519;SDS011;11936;50.820;4.336;2022-09-09T06:33:47;18.05;;;2.90;;
23519;SDS011;11936;50.820;4.336;2022-09-09T06:38:45;11.77;;;2.28;;
23519;SDS011;11936;50.820;4.336;2022-09-09T06:41:11;13.82;;;2.85;;
23519;SDS011;11936;50.820;4.336;2022-09-09T06:43:38;15.70;;;2.65;;
23519;SDS011;11936;50.820;4.336;2022-09-09T06:46:06;17.58;;;2.60;;
23519;SDS011;11936;50.820;4.336;2022-09-09T06:48:34;14.10;;;3.08;;
23519;SDS011;11936;50.820;4.336;2022-09-09T06:51:02;12.07;;;3.03;;
23519;SDS011;11936;50.820;4.336;2022-09-09T06:53:28;13.50;;;2.63;;
23519;SDS011;11936;50.820;4.336;2022-09-09T06:55:54;7.00;;;2.50;;
23519;SDS011;11936;50.820;4.336;2022-09-09T06:58:20;10.70;;;2.60;;
23519;SDS011;11936;50.820;4.336;2022-09-09T07:03:14;12.20;;;2.67;;
23519;SDS011;11936;50.820;4.336;2022-09-09T07:05:40;9.85;;;2.72;;
23519;SDS011;11936;50.820;4.336;2022-09-09T07:08:05;14.50;;;2.85;;
23519;SDS011;11936;50.820;4.336;2022-09-09T07:10:31;13.07;;;2.70;;
23519;SDS011;11936;50.820;4.336;2022-09-09T07:12:57;10.95;;;2.70;;
23519;SDS011;11936;50.820;4.336;2022-09-09T07:15:22;9.05;;;1.88;;
23519;SDS011;11936;50.820;4.336;2022-09-09T07:17:48;16.50;;;2.88;;
23519;SDS011;11936;50.820;4.336;2022-09-09T07:20:14;10.07;;;2.58;;
23519;SDS011;11936;50.820;4.336;2022-09-09T07:22:40;5.15;;;2.17;;
23519;SDS011;11936;50.820;4.336;2022-09-09T07:25:06;12.27;;;2.78;;
23519;SDS011;11936;50.820;4.336;2022-09-09T07:27:32;10.15;;;2.42;;
23519;SDS011;11936;50.820;4.336;2022-09-09T07:29:58;12.02;;;2.90;;
23519;SDS011;11936;50.820;4.336;2022-09-09T07:32:24;9.45;;;2.47;;
23519;SDS011;11936;50.820;4.336;2022-09-09T07:34:55;12.90;;;2.45;;
23519;SDS011;11936;50.820;4.336;2022-09-09T07:37:21;10.57;;;2.60;;
23519;SDS011;11936;50.820;4.336;2022-09-09T07:39:46;9.10;;;2.40;;
23519;SDS011;11936;50.820;4.336;2022-09-09T07:42:12;8.88;;;2.55;;
23519;SDS011;11936;50.820;4.336;2022-09-09T07:44:38;13.32;;;3.53;;
23519;SDS011;11936;50.820;4.336;2022-09-09T07:47:05;10.63;;;2.33;;
23519;SDS011;11936;50.820;4.336;2022-09-09T07:49:31;14.32;;;2.63;;
23519;SDS011;11936;50.820;4.336;2022-09-09T07:51:57;15.25;;;2.92;;
23519;SDS011;11936;50.820;4.336;2022-09-09T07:54:23;11.18;;;2.72;;
23519;SDS011;11936;50.820;4.336;2022-09-09T07:56:50;9.85;;;2.80;;
23519;SDS011;11936;50.820;4.336;2022-09-09T07:59:16;9.48;;;2.03;;
23519;SDS011;11936;50.820;4.336;2022-09-09T08:01:43;8.77;;;2.40;;
23519;SDS011;11936;50.820;4.336;2022-09-09T08:04:11;6.35;;;2.28;;
23519;SDS011;11936;50.820;4.336;2022-09-09T08:06:40;8.32;;;2.25;;
23519;SDS011;11936;50.820;4.336;2022-09-09T08:09:08;10.63;;;2.30;;
23519;SDS011;11936;50.820;4.336;2022-09-09T08:11:34;10.98;;;2.75;;
23519;SDS011;11936;50.820;4.336;2022-09-09T08:14:01;12.55;;;2.28;;
23519;SDS011;11936;50.820;4.336;2022-09-09T08:16:28;7.05;;;2.17;;
23519;SDS011;11936;50.820;4.336;2022-09-09T08:18:56;13.32;;;2.08;;
23519;SDS011;11936;50.820;4.336;2022-09-09T08:21:23;7.97;;;2.80;;
23519;SDS011;11936;50.820;4.336;2022-09-09T08:23:52;9.05;;;2.42;;
23519;SDS011;11936;50.820;4.336;2022-09-09T08:26:19;8.60;;;2.78;;
23519;SDS011;11936;50.820;4.336;2022-09-09T08:28:49;10.48;;;2.38;;
23519;SDS011;11936;50.820;4.336;2022-09-09T08:31:18;11.20;;;2.78;;
23519;SDS011;11936;50.820;4.336;2022-09-09T08:33:46;8.75;;;2.53;;
23519;SDS011;11936;50.820;4.336;2022-09-09T08:36:13;11.70;;;2.83;;
23519;SDS011;11936;50.820;4.336;2022-09-09T08:38:43;21.13;;;3.30;;
23519;SDS011;11936;50.820;4.336;2022-09-09T08:41:23;15.50;;;3.40;;
23519;SDS011;11936;50.820;4.336;2022-09-09T08:46:54;8.43;;;2.20;;
23519;SDS011;11936;50.820;4.336;2022-09-09T08:52:10;11.20;;;2.53;;
23519;SDS011;11936;50.820;4.336;2022-09-09T08:54:41;10.05;;;2.70;;
23519;SDS011;11936;50.820;4.336;2022-09-09T08:57:09;6.18;;;2.13;;
23519;SDS011;11936;50.820;4.336;2022-09-09T08:59:41;8.98;;;2.22;;
23519;SDS011;11936;50.820;4.336;2022-09-09T09:10:29;10.13;;;2.45;;
23519;SDS011;11936;50.820;4.336;2022-09-09T09:13:13;12.75;;;3.17;;
23519;SDS011;11936;50.820;4.336;2022-09-09T09:15:42;9.90;;;2.72;;
23519;SDS011;11936;50.820;4.336;2022-09-09T09:18:11;14.27;;;2.80;;
23519;SDS011;11936;50.820;4.336;2022-09-09T09:23:12;9.18;;;2.33;;
23519;SDS011;11936;50.820;4.336;2022-09-09T09:25:47;7.13;;;2.20;;
23519;SDS011;11936;50.820;4.336;2022-09-09T09:28:18;9.55;;;2.38;;
23519;SDS011;11936;50.820;4.336;2022-09-09T09:36:00;8.23;;;2.55;;
23519;SDS011;11936;50.820;4.336;2022-09-09T09:38:28;11.95;;;2.47;;
23519;SDS011;11936;50.820;4.336;2022-09-09T09:40:55;9.02;;;2.55;;
23519;SDS011;11936;50.820;4.336;2022-09-09T09:43:29;14.73;;;3.83;;
23519;SDS011;11936;50.820;4.336;2022-09-09T09:45:59;12.60;;;3.33;;
23519;SDS011;11936;50.820;4.336;2022-09-09T09:48:25;9.30;;;2.80;;
23519;SDS011;11936;50.820;4.336;2022-09-09T09:50:53;10.75;;;2.60;;
23519;SDS011;11936;50.820;4.336;2022-09-09T09:53:25;9.38;;;2.83;;
23519;SDS011;11936;50.820;4.336;2022-09-09T09:58:20;9.73;;;2.50;;
23519;SDS011;11936;50.820;4.336;2022-09-09T10:00:50;10.13;;;2.60;;
23519;SDS011;11936;50.820;4.336;2022-09-09T10:03:28;10.60;;;2.53;;
23519;SDS011;11936;50.820;4.336;2022-09-09T10:05:55;9.48;;;2.70;;
23519;SDS011;11936;50.820;4.336;2022-09-09T10:08:25;5.35;;;2.50;;
23519;SDS011;11936;50.820;4.336;2022-09-09T10:19:19;4.50;;;1.73;;
23519;SDS011;11936;50.820;4.336;2022-09-09T10:21:56;7.03;;;2.40;;
23519;SDS011;11936;50.820;4.336;2022-09-09T10:27:25;8.05;;;2.33;;
23519;SDS011;11936;50.820;4.336;2022-09-09T10:57:38;10.48;;;2.25;;
23519;SDS011;11936;50.820;4.336;2022-09-09T11:00:14;8.18;;;2.70;;
23519;SDS011;11936;50.820;4.336;2022-09-09T11:02:40;11.63;;;2.47;;
23519;SDS011;11936;50.820;4.336;2022-09-09T11:05:18;7.57;;;2.33;;
23519;SDS011;11936;50.820;4.336;2022-09-09T11:12:49;7.22;;;2.08;;
23519;SDS011;11936;50.820;4.336;2022-09-09T11:15:20;5.63;;;2.25;;
23519;SDS011;11936;50.820;4.336;2022-09-09T11:17:56;10.98;;;2.40;;
23519;SDS011;11936;50.820;4.336;2022-09-09T11:20:26;8.63;;;2.30;;
23519;SDS011;11936;50.820;4.336;2022-09-09T11:22:54;11.70;;;2.33;;
23519;SDS011;11936;50.820;4.336;2022-09-09T11:25:35;7.70;;;1.77;;
23519;SDS011;11936;50.820;4.336;2022-09-09T11:28:11;9.18;;;2.22;;
23519;SDS011;11936;50.820;4.336;2022-09-09T11:31:16;7.20;;;2.13;;
23519;SDS011;11936;50.820;4.336;2022-09-09T11:37:10;8.38;;;1.90;;
23519;SDS011;11936;50.820;4.336;2022-09-09T11:42:23;10.27;;;2.60;;
23519;SDS011;11936;50.820;4.336;2022-09-09T11:44:49;9.60;;;2.53;;
23519;SDS011;11936;50.820;4.336;2022-09-09T11:50:08;9.70;;;2.40;;
23519;SDS011;11936;50.820;4.336;2022-09-09T11:52:38;10.10;;;1.95;;
23519;SDS011;11936;50.820;4.336;2022-09-09T11:58:04;10.48;;;2.45;;
23519;SDS011;11936;50.820;4.336;2022-09-09T12:00:40;8.75;;;1.98;;
23519;SDS011;11936;50.820;4.336;2022-09-09T12:05:58;8.90;;;2.35;;
23519;SDS011;11936;50.820;4.336;2022-09-09T12:08:28;8.65;;;2.22;;
23519;SDS011;11936;50.820;4.336;2022-09-09T12:10:55;7.38;;;1.92;;
23519;SDS011;11936;50.820;4.336;2022-09-09T12:15:53;9.18;;;2.15;;
23519;SDS011;11936;50.820;4.336;2022-09-09T12:26:22;10.13;;;1.77;;
23519;SDS011;11936;50.820;4.336;2022-09-09T12:37:34;8.43;;;2.30;;
23519;SDS011;11936;50.820;4.336;2022-09-09T12:40:06;6.75;;;1.67;;
23519;SDS011;11936;50.820;4.336;2022-09-09T12:42:48;7.75;;;2.15;;
23519;SDS011;11936;50.820;4.336;2022-09-09T12:45:19;8.75;;;1.90;;
23519;SDS011;11936;50.820;4.336;2022-09-09T12:47:51;5.30;;;1.65;;
23519;SDS011;11936;50.820;4.336;2022-09-09T12:50:28;4.10;;;1.50;;
23519;SDS011;11936;50.820;4.336;2022-09-09T12:53:10;7.88;;;1.65;;
23519;SDS011;11936;50.820;4.336;2022-09-09T12:55:48;3.83;;;1.40;;
23519;SDS011;11936;50.820;4.336;2022-09-09T12:58:17;5.32;;;1.42;;
23519;SDS011;11936;50.820;4.336;2022-09-09T13:00:55;5.25;;;1.77;;
23519;SDS011;11936;50.820;4.336;2022-09-09T13:03:24;6.32;;;1.70;;
23519;SDS011;11936;50.820;4.336;2022-09-09T13:05:51;8.25;;;1.55;;
23519;SDS011;11936;50.820;4.336;2022-09-09T13:08:18;5.53;;;1.67;;
23519;SDS011;11936;50.820;4.336;2022-09-09T13:10:58;3.97;;;1.63;;
23519;SDS011;11936;50.820;4.336;2022-09-09T13:13:30;7.20;;;1.92;;
23519;SDS011;11936;50.820;4.336;2022-09-09T13:16:07;5.82;;;1.63;;
23519;SDS011;11936;50.820;4.336;2022-09-09T13:18:45;7.72;;;2.22;;
23519;SDS011;11936;50.820;4.336;2022-09-09T13:21:11;5.00;;;1.80;;
23519;SDS011;11936;50.820;4.336;2022-09-09T13:23:37;5.47;;;1.70;;
23519;SDS011;11936;50.820;4.336;2022-09-09T13:28:51;4.78;;;1.65;;
23519;SDS011;11936;50.820;4.336;2022-09-09T13:31:33;2.65;;;1.45;;
23519;SDS011;11936;50.820;4.336;2022-09-09T13:34:22;7.10;;;1.98;;
23519;SDS011;11936;50.820;4.336;2022-09-09T13:36:52;5.30;;;1.58;;
23519;SDS011;11936;50.820;4.336;2022-09-09T13:39:31;4.82;;;1.50;;
23519;SDS011;11936;50.820;4.336;2022-09-09T13:41:59;6.68;;;1.75;;
23519;SDS011;11936;50.820;4.336;2022-09-09T13:44:29;5.18;;;1.67;;
23519;SDS011;11936;50.820;4.336;2022-09-09T13:47:32;5.00;;;1.23;;
23519;SDS011;11936;50.820;4.336;2022-09-09T13:49:56;4.20;;;1.27;;
23519;SDS011;11936;50.820;4.336;2022-09-09T13:52:22;5.97;;;1.30;;
23519;SDS011;11936;50.820;4.336;2022-09-09T13:54:49;4.05;;;1.40;;
23519;SDS011;11936;50.820;4.336;2022-09-09T13:57:20;4.70;;;1.60;;
23519;SDS011;11936;50.820;4.336;2022-09-09T13:59:47;6.13;;;1.50;;
23519;SDS011;11936;50.820;4.336;2022-09-09T14:02:14;6.15;;;1.63;;
23519;SDS011;11936;50.820;4.336;2022-09-09T14:04:41;5.18;;;1.45;;
23519;SDS011;11936;50.820;4.336;2022-09-09T14:07:14;5.28;;;1.70;;
23519;SDS011;11936;50.820;4.336;2022-09-09T14:09:42;5.13;;;1.80;;
23519;SDS011;11936;50.820;4.336;2022-09-09T14:12:09;6.68;;;2.30;;
23519;SDS011;11936;50.820;4.336;2022-09-09T14:17:02;6.82;;;1.80;;
23519;SDS011;11936;50.820;4.336;2022-09-09T14:19:28;3.92;;;1.73;;
23519;SDS011;11936;50.820;4.336;2022-09-09T14:21:55;3.50;;;1.58;;
23519;SDS011;11936;50.820;4.336;2022-09-09T14:24:21;4.55;;;1.52;;
23519;SDS011;11936;50.820;4.336;2022-09-09T14:26:47;6.78;;;2.25;;
23519;SDS011;11936;50.820;4.336;2022-09-09T14:29:13;3.25;;;1.27;;
23519;SDS011;11936;50.820;4.336;2022-09-09T14:31:38;4.60;;;1.80;;
23519;SDS011;11936;50.820;4.336;2022-09-09T14:34:04;8.57;;;1.67;;
23519;SDS011;11936;50.820;4.336;2022-09-09T14:36:30;4.47;;;1.70;;
23519;SDS011;11936;50.820;4.336;2022-09-09T14:38:56;7.05;;;1.90;;
23519;SDS011;11936;50.820;4.336;2022-09-09T14:41:22;6.38;;;1.85;;
23519;SDS011;11936;50.820;4.336;2022-09-09T14:43:48;11.68;;;1.90;;
23519;SDS011;11936;50.820;4.336;2022-09-09T14:46:15;4.38;;;1.60;;
23519;SDS011;11936;50.820;4.336;2022-09-09T14:48:42;10.10;;;2.25;;
23519;SDS011;11936;50.820;4.336;2022-09-09T14:51:10;4.90;;;1.38;;
23519;SDS011;11936;50.820;4.336;2022-09-09T14:56:13;4.40;;;1.60;;
23519;SDS011;11936;50.820;4.336;2022-09-09T14:58:41;9.83;;;1.70;;
23519;SDS011;11936;50.820;4.336;2022-09-09T15:01:08;9.02;;;1.70;;
23519;SDS011;11936;50.820;4.336;2022-09-09T15:03:39;8.25;;;1.90;;
23519;SDS011;11936;50.820;4.336;2022-09-09T15:06:07;4.90;;;1.70;;
23519;SDS011;11936;50.820;4.336;2022-09-09T15:08:33;7.38;;;1.60;;
23519;SDS011;11936;50.820;4.336;2022-09-09T15:11:03;7.30;;;1.85;;
23519;SDS011;11936;50.820;4.336;2022-09-09T15:13:30;7.40;;;1.58;;
23519;SDS011;11936;50.820;4.336;2022-09-09T15:16:00;5.00;;;1.30;;
23519;SDS011;11936;50.820;4.336;2022-09-09T15:18:32;4.70;;;1.50;;
23519;SDS011;11936;50.820;4.336;2022-09-09T15:20:58;4.78;;;2.00;;
23519;SDS011;11936;50.820;4.336;2022-09-09T15:23:26;4.03;;;1.88;;
23519;SDS011;11936;50.820;4.336;2022-09-09T15:25:55;4.60;;;1.73;;
23519;SDS011;11936;50.820;4.336;2022-09-09T15:28:21;8.25;;;1.98;;
23519;SDS011;11936;50.820;4.336;2022-09-09T15:30:50;4.53;;;1.73;;
23519;SDS011;11936;50.820;4.336;2022-09-09T15:33:21;2.88;;;1.73;;
23519;SDS011;11936;50.820;4.336;2022-09-09T15:35:47;5.28;;;1.90;;
23519;SDS011;11936;50.820;4.336;2022-09-09T15:38:14;2.95;;;1.58;;
23519;SDS011;11936;50.820;4.336;2022-09-09T15:40:41;6.68;;;1.77;;
23519;SDS011;11936;50.820;4.336;2022-09-09T15:43:08;5.72;;;2.20;;
23519;SDS011;11936;50.820;4.336;2022-09-09T15:45:35;7.28;;;2.08;;
23519;SDS011;11936;50.820;4.336;2022-09-09T15:48:02;5.72;;;1.80;;
23519;SDS011;11936;50.820;4.336;2022-09-09T15:50:29;6.30;;;2.03;;
23519;SDS011;11936;50.820;4.336;2022-09-09T15:52:57;7.85;;;2.03;;
23519;SDS011;11936;50.820;4.336;2022-09-09T15:55:23;3.95;;;1.80;;
23519;SDS011;11936;50.820;4.336;2022-09-09T15:57:51;7.55;;;1.67;;
23519;SDS011;11936;50.820;4.336;2022-09-09T16:00:17;5.00;;;1.80;;
23519;SDS011;11936;50.820;4.336;2022-09-09T16:02:44;6.65;;;2.00;;
23519;SDS011;11936;50.820;4.336;2022-09-09T16:05:11;4.83;;;1.87;;
23519;SDS011;11936;50.820;4.336;2022-09-09T16:07:37;5.32;;;1.77;;
23519;SDS011;11936;50.820;4.336;2022-09-09T16:10:03;8.23;;;2.10;;
23519;SDS011;11936;50.820;4.336;2022-09-09T16:12:28;3.13;;;1.38;;
23519;SDS011;11936;50.820;4.336;2022-09-09T16:14:54;8.20;;;1.80;;
23519;SDS011;11936;50.820;4.336;2022-09-09T16:17:20;4.45;;;1.70;;
23519;SDS011;11936;50.820;4.336;2022-09-09T16:19:46;6.60;;;1.83;;
23519;SDS011;11936;50.820;4.336;2022-09-09T16:22:11;5.03;;;1.83;;
23519;SDS011;11936;50.820;4.336;2022-09-09T16:24:40;5.55;;;1.75;;
23519;SDS011;11936;50.820;4.336;2022-09-09T16:27:05;6.50;;;2.20;;
23519;SDS011;11936;50.820;4.336;2022-09-09T16:29:31;7.82;;;2.15;;
23519;SDS011;11936;50.820;4.336;2022-09-09T16:31:57;4.80;;;1.63;;
23519;SDS011;11936;50.820;4.336;2022-09-09T16:34:23;3.15;;;1.88;;
23519;SDS011;11936;50.820;4.336;2022-09-09T16:36:50;5.00;;;1.40;;
23519;SDS011;11936;50.820;4.336;2022-09-09T16:39:16;5.75;;;1.52;;
23519;SDS011;11936;50.820;4.336;2022-09-09T16:41:44;5.25;;;1.88;;
23519;SDS011;11936;50.820;4.336;2022-09-09T16:44:11;8.40;;;1.90;;
23519;SDS011;11936;50.820;4.336;2022-09-09T16:46:38;5.22;;;1.75;;
23519;SDS011;11936;50.820;4.336;2022-09-09T16:51:34;3.25;;;1.52;;
23519;SDS011;11936;50.820;4.336;2022-09-09T16:54:03;6.05;;;2.17;;
23519;SDS011;11936;50.820;4.336;2022-09-09T16:56:32;5.07;;;2.10;;
23519;SDS011;11936;50.820;4.336;2022-09-09T16:59:00;3.85;;;1.70;;
23519;SDS011;11936;50.820;4.336;2022-09-09T17:01:30;5.85;;;1.98;;
23519;SDS011;11936;50.820;4.336;2022-09-09T17:04:01;4.40;;;1.88;;
23519;SDS011;11936;50.820;4.336;2022-09-09T17:06:29;9.45;;;2.40;;
23519;SDS011;11936;50.820;4.336;2022-09-09T17:08:56;4.43;;;2.17;;
23519;SDS011;11936;50.820;4.336;2022-09-09T17:11:24;9.40;;;1.85;;
23519;SDS011;11936;50.820;4.336;2022-09-09T17:13:50;6.78;;;1.45;;
23519;SDS011;11936;50.820;4.336;2022-09-09T17:16:17;3.53;;;1.77;;
23519;SDS011;11936;50.820;4.336;2022-09-09T17:18:46;5.28;;;1.90;;
23519;SDS011;11936;50.820;4.336;2022-09-09T17:21:13;3.15;;;1.42;;
23519;SDS011;11936;50.820;4.336;2022-09-09T17:26:08;3.53;;;2.03;;
23519;SDS011;11936;50.820;4.336;2022-09-09T17:31:03;8.45;;;2.28;;
23519;SDS011;11936;50.820;4.336;2022-09-09T17:33:31;4.63;;;1.65;;
23519;SDS011;11936;50.820;4.336;2022-09-09T17:35:58;7.30;;;1.85;;
23519;SDS011;11936;50.820;4.336;2022-09-09T17:38:29;8.05;;;2.45;;
23519;SDS011;11936;50.820;4.336;2022-09-09T17:43:28;8.95;;;2.35;;
23519;SDS011;11936;50.820;4.336;2022-09-09T17:45:53;8.40;;;1.90;;
23519;SDS011;11936;50.820;4.336;2022-09-09T17:48:19;11.32;;;2.63;;
23519;SDS011;11936;50.820;4.336;2022-09-09T17:50:44;6.10;;;2.05;;
23519;SDS011;11936;50.820;4.336;2022-09-09T17:53:11;7.03;;;1.77;;
23519;SDS011;11936;50.820;4.336;2022-09-09T17:55:36;7.80;;;2.05;;
23519;SDS011;11936;50.820;4.336;2022-09-09T17:58:02;8.77;;;2.13;;
23519;SDS011;11936;50.820;4.336;2022-09-09T18:00:27;8.85;;;2.03;;
23519;SDS011;11936;50.820;4.336;2022-09-09T18:02:55;14.35;;;2.67;;
23519;SDS011;11936;50.820;4.336;2022-09-09T18:05:20;11.85;;;2.65;;
23519;SDS011;11936;50.820;4.336;2022-09-09T18:07:46;6.47;;;2.33;;
23519;SDS011;11936;50.820;4.336;2022-09-09T18:10:12;9.38;;;2.17;;
23519;SDS011;11936;50.820;4.336;2022-09-09T18:12:38;3.67;;;1.77;;
23519;SDS011;11936;50.820;4.336;2022-09-09T18:15:05;8.85;;;2.10;;
23519;SDS011;11936;50.820;4.336;2022-09-09T18:17:30;5.25;;;1.95;;
23519;SDS011;11936;50.820;4.336;2022-09-09T18:19:56;7.22;;;1.85;;